sensor_id;sensor_type;location;lat;lon;timestamp;P1;durP1;ratioP1;P2;durP2;ratioP2
49948;SDS011;35840;45.982;8.890;2023-02-12T00:02:25;20.15;;;13.43;;
49948;SDS011;35840;45.982;8.890;2023-02-12T00:04:52;24.58;;;14.20;;
49948;SDS011;35840;45.982;8.890;2023-02-12T00:07:18;25.05;;;14.38;;
49948;SDS011;35840;45.982;8.890;2023-02-12T00:09:45;26.52;;;14.43;;
49948;SDS011;35840;45.982;8.890;2023-02-12T00:12:12;22.10;;;13.23;;
49948;SDS011;35840;45.982;8.890;2023-02-12T00:14:39;26.38;;;14.75;;
49948;SDS011;35840;45.982;8.890;2023-02-12T00:17:06;24.17;;;15.02;;
49948;SDS011;35840;45.982;8.890;2023-02-12T00:19:32;27.95;;;15.82;;
49948;SDS011;35840;45.982;8.890;2023-02-12T00:21:59;27.45;;;15.70;;
49948;SDS011;35840;45.982;8.890;2023-02-12T00:24:26;24.85;;;15.57;;
49948;SDS011;35840;45.982;8.890;2023-02-12T00:26:53;25.95;;;15.02;;
49948;SDS011;35840;45.982;8.890;2023-02-12T00:29:19;23.92;;;14.20;;
49948;SDS011;35840;45.982;8.890;2023-02-12T00:31:46;19.92;;;12.32;;
49948;SDS011;35840;45.982;8.890;2023-02-12T00:34:14;28.17;;;13.57;;
49948;SDS011;35840;45.982;8.890;2023-02-12T00:36:41;22.77;;;13.45;;
49948;SDS011;35840;45.982;8.890;2023-02-12T00:39:08;23.38;;;13.43;;
49948;SDS011;35840;45.982;8.890;2023-02-12T00:41:36;28.50;;;12.85;;
49948;SDS011;35840;45.982;8.890;2023-02-12T00:44:02;21.90;;;12.40;;
49948;SDS011;35840;45.982;8.890;2023-02-12T00:46:29;20.63;;;11.90;;
49948;SDS011;35840;45.982;8.890;2023-02-12T00:48:56;22.25;;;12.27;;
49948;SDS011;35840;45.982;8.890;2023-02-12T00:51:23;22.15;;;13.50;;
49948;SDS011;35840;45.982;8.890;2023-02-12T00:53:49;24.02;;;12.98;;
49948;SDS011;35840;45.982;8.890;2023-02-12T00:56:16;25.33;;;13.85;;
49948;SDS011;35840;45.982;8.890;2023-02-12T00:58:43;22.98;;;13.07;;
49948;SDS011;35840;45.982;8.890;2023-02-12T01:01:09;25.35;;;14.98;;
49948;SDS011;35840;45.982;8.890;2023-02-12T01:03:36;27.48;;;13.73;;
49948;SDS011;35840;45.982;8.890;2023-02-12T01:06:04;24.42;;;13.48;;
49948;SDS011;35840;45.982;8.890;2023-02-12T01:08:31;24.10;;;13.82;;
49948;SDS011;35840;45.982;8.890;2023-02-12T01:10:59;25.20;;;12.88;;
49948;SDS011;35840;45.982;8.890;2023-02-12T01:13:28;26.20;;;13.73;;
49948;SDS011;35840;45.982;8.890;2023-02-12T01:16:03;24.17;;;12.88;;
49948;SDS011;35840;45.982;8.890;2023-02-12T01:18:30;22.50;;;13.60;;
49948;SDS011;35840;45.982;8.890;2023-02-12T01:20:57;22.80;;;13.02;;
49948;SDS011;35840;45.982;8.890;2023-02-12T01:23:24;23.25;;;13.60;;
49948;SDS011;35840;45.982;8.890;2023-02-12T01:25:51;19.70;;;11.68;;
49948;SDS011;35840;45.982;8.890;2023-02-12T01:28:18;20.20;;;12.07;;
49948;SDS011;35840;45.982;8.890;2023-02-12T01:30:45;20.27;;;11.85;;
49948;SDS011;35840;45.982;8.890;2023-02-12T01:33:12;23.55;;;11.75;;
49948;SDS011;35840;45.982;8.890;2023-02-12T01:35:39;23.40;;;12.43;;
49948;SDS011;35840;45.982;8.890;2023-02-12T01:38:05;23.02;;;12.32;;
49948;SDS011;35840;45.982;8.890;2023-02-12T01:40:32;21.00;;;11.93;;
49948;SDS011;35840;45.982;8.890;2023-02-12T01:43:00;21.35;;;12.98;;
49948;SDS011;35840;45.982;8.890;2023-02-12T01:47:54;24.05;;;11.93;;
49948;SDS011;35840;45.982;8.890;2023-02-12T01:50:22;21.95;;;11.73;;
49948;SDS011;35840;45.982;8.890;2023-02-12T01:52:50;22.30;;;13.00;;
49948;SDS011;35840;45.982;8.890;2023-02-12T01:55:21;23.25;;;12.50;;
49948;SDS011;35840;45.982;8.890;2023-02-12T01:57:48;23.77;;;11.98;;
49948;SDS011;35840;45.982;8.890;2023-02-12T02:00:17;22.63;;;12.02;;
49948;SDS011;35840;45.982;8.890;2023-02-12T02:02:48;21.15;;;11.48;;
49948;SDS011;35840;45.982;8.890;2023-02-12T02:05:41;21.92;;;13.05;;
49948;SDS011;35840;45.982;8.890;2023-02-12T02:08:11;20.17;;;11.45;;
49948;SDS011;35840;45.982;8.890;2023-02-12T02:10:38;22.48;;;12.07;;
49948;SDS011;35840;45.982;8.890;2023-02-12T02:13:05;18.83;;;11.63;;
49948;SDS011;35840;45.982;8.890;2023-02-12T02:15:52;19.75;;;12.20;;
49948;SDS011;35840;45.982;8.890;2023-02-12T02:27:50;23.10;;;11.38;;
49948;SDS011;35840;45.982;8.890;2023-02-12T02:32:57;16.02;;;9.48;;
49948;SDS011;35840;45.982;8.890;2023-02-12T02:35:42;18.65;;;10.75;;
49948;SDS011;35840;45.982;8.890;2023-02-12T02:40:58;15.25;;;9.07;;
49948;SDS011;35840;45.982;8.890;2023-02-12T02:43:33;17.38;;;9.25;;
49948;SDS011;35840;45.982;8.890;2023-02-12T02:46:16;18.83;;;10.20;;
49948;SDS011;35840;45.982;8.890;2023-02-12T02:48:52;15.70;;;9.75;;
49948;SDS011;35840;45.982;8.890;2023-02-12T02:51:44;16.20;;;9.25;;
49948;SDS011;35840;45.982;8.890;2023-02-12T02:54:12;15.45;;;9.52;;
49948;SDS011;35840;45.982;8.890;2023-02-12T02:56:44;16.40;;;10.25;;
49948;SDS011;35840;45.982;8.890;2023-02-12T02:59:16;15.77;;;9.95;;
49948;SDS011;35840;45.982;8.890;2023-02-12T03:01:57;17.60;;;8.80;;
49948;SDS011;35840;45.982;8.890;2023-02-12T03:04:28;17.95;;;9.43;;
49948;SDS011;35840;45.982;8.890;2023-02-12T03:07:04;15.52;;;10.00;;
49948;SDS011;35840;45.982;8.890;2023-02-12T03:09:56;21.90;;;10.93;;
49948;SDS011;35840;45.982;8.890;2023-02-12T03:12:47;19.92;;;10.65;;
49948;SDS011;35840;45.982;8.890;2023-02-12T03:17:47;17.23;;;9.80;;
49948;SDS011;35840;45.982;8.890;2023-02-12T03:20:22;18.40;;;10.65;;
49948;SDS011;35840;45.982;8.890;2023-02-12T03:22:54;19.25;;;12.27;;
49948;SDS011;35840;45.982;8.890;2023-02-12T03:25:27;20.13;;;10.88;;
49948;SDS011;35840;45.982;8.890;2023-02-12T03:28:03;54.80;;;28.07;;
49948;SDS011;35840;45.982;8.890;2023-02-12T03:33:48;23.08;;;11.93;;
49948;SDS011;35840;45.982;8.890;2023-02-12T03:42:06;23.73;;;13.25;;
49948;SDS011;35840;45.982;8.890;2023-02-12T03:52:45;18.38;;;11.52;;
49948;SDS011;35840;45.982;8.890;2023-02-12T03:55:12;19.05;;;11.48;;
49948;SDS011;35840;45.982;8.890;2023-02-12T03:57:41;18.77;;;10.43;;
49948;SDS011;35840;45.982;8.890;2023-02-12T04:00:12;20.55;;;9.93;;
49948;SDS011;35840;45.982;8.890;2023-02-12T04:02:45;17.67;;;10.75;;
49948;SDS011;35840;45.982;8.890;2023-02-12T04:05:19;18.02;;;11.35;;
49948;SDS011;35840;45.982;8.890;2023-02-12T04:10:15;19.35;;;9.50;;
49948;SDS011;35840;45.982;8.890;2023-02-12T04:18:30;17.60;;;9.73;;
49948;SDS011;35840;45.982;8.890;2023-02-12T04:24:05;17.77;;;10.68;;
49948;SDS011;35840;45.982;8.890;2023-02-12T04:27:34;24.20;;;11.80;;
49948;SDS011;35840;45.982;8.890;2023-02-12T04:37:52;16.75;;;9.88;;
49948;SDS011;35840;45.982;8.890;2023-02-12T04:40:22;14.63;;;8.02;;
49948;SDS011;35840;45.982;8.890;2023-02-12T04:42:50;12.75;;;7.85;;
49948;SDS011;35840;45.982;8.890;2023-02-12T04:45:28;14.60;;;7.90;;
49948;SDS011;35840;45.982;8.890;2023-02-12T04:47:58;10.90;;;7.25;;
49948;SDS011;35840;45.982;8.890;2023-02-12T04:50:26;10.63;;;6.85;;
49948;SDS011;35840;45.982;8.890;2023-02-12T04:53:04;14.57;;;7.25;;
49948;SDS011;35840;45.982;8.890;2023-02-12T04:55:30;12.10;;;8.02;;
49948;SDS011;35840;45.982;8.890;2023-02-12T04:57:57;13.98;;;7.32;;
49948;SDS011;35840;45.982;8.890;2023-02-12T05:00:24;14.25;;;7.50;;
49948;SDS011;35840;45.982;8.890;2023-02-12T05:02:51;12.80;;;7.13;;
49948;SDS011;35840;45.982;8.890;2023-02-12T05:05:17;10.98;;;7.35;;
49948;SDS011;35840;45.982;8.890;2023-02-12T05:07:44;14.80;;;7.63;;
49948;SDS011;35840;45.982;8.890;2023-02-12T05:10:11;16.65;;;7.53;;
49948;SDS011;35840;45.982;8.890;2023-02-12T05:12:38;12.88;;;7.43;;
49948;SDS011;35840;45.982;8.890;2023-02-12T05:15:04;12.55;;;7.20;;
49948;SDS011;35840;45.982;8.890;2023-02-12T05:17:34;13.40;;;8.07;;
49948;SDS011;35840;45.982;8.890;2023-02-12T05:20:03;12.07;;;6.97;;
49948;SDS011;35840;45.982;8.890;2023-02-12T05:22:36;14.80;;;8.10;;
49948;SDS011;35840;45.982;8.890;2023-02-12T05:25:03;15.90;;;7.75;;
49948;SDS011;35840;45.982;8.890;2023-02-12T05:27:30;12.75;;;7.35;;
49948;SDS011;35840;45.982;8.890;2023-02-12T05:29:57;13.68;;;7.03;;
49948;SDS011;35840;45.982;8.890;2023-02-12T05:32:24;11.73;;;6.78;;
49948;SDS011;35840;45.982;8.890;2023-02-12T05:34:50;11.75;;;7.28;;
49948;SDS011;35840;45.982;8.890;2023-02-12T05:37:17;13.02;;;6.90;;
49948;SDS011;35840;45.982;8.890;2023-02-12T05:39:51;10.85;;;6.20;;
49948;SDS011;35840;45.982;8.890;2023-02-12T05:42:28;12.85;;;7.15;;
49948;SDS011;35840;45.982;8.890;2023-02-12T05:45:03;14.90;;;7.78;;
49948;SDS011;35840;45.982;8.890;2023-02-12T05:47:41;13.07;;;7.40;;
49948;SDS011;35840;45.982;8.890;2023-02-12T05:50:08;10.50;;;6.50;;
49948;SDS011;35840;45.982;8.890;2023-02-12T05:52:35;16.35;;;8.15;;
49948;SDS011;35840;45.982;8.890;2023-02-12T05:55:02;13.45;;;7.63;;
49948;SDS011;35840;45.982;8.890;2023-02-12T05:57:29;16.05;;;7.95;;
49948;SDS011;35840;45.982;8.890;2023-02-12T05:59:55;14.38;;;7.63;;
49948;SDS011;35840;45.982;8.890;2023-02-12T06:02:22;14.90;;;8.27;;
49948;SDS011;35840;45.982;8.890;2023-02-12T06:04:49;13.80;;;8.18;;
49948;SDS011;35840;45.982;8.890;2023-02-12T06:07:15;10.85;;;6.75;;
49948;SDS011;35840;45.982;8.890;2023-02-12T06:09:42;12.18;;;7.38;;
49948;SDS011;35840;45.982;8.890;2023-02-12T06:12:09;10.98;;;7.13;;
49948;SDS011;35840;45.982;8.890;2023-02-12T06:14:36;10.85;;;6.22;;
49948;SDS011;35840;45.982;8.890;2023-02-12T06:17:02;10.68;;;6.32;;
49948;SDS011;35840;45.982;8.890;2023-02-12T06:19:29;13.57;;;7.18;;
49948;SDS011;35840;45.982;8.890;2023-02-12T06:21:56;10.73;;;6.90;;
49948;SDS011;35840;45.982;8.890;2023-02-12T06:24:23;14.60;;;6.45;;
49948;SDS011;35840;45.982;8.890;2023-02-12T06:26:50;11.13;;;6.60;;
49948;SDS011;35840;45.982;8.890;2023-02-12T06:29:17;11.13;;;7.40;;
49948;SDS011;35840;45.982;8.890;2023-02-12T06:31:45;13.13;;;6.85;;
49948;SDS011;35840;45.982;8.890;2023-02-12T06:34:13;13.15;;;6.90;;
49948;SDS011;35840;45.982;8.890;2023-02-12T06:36:43;10.35;;;6.07;;
49948;SDS011;35840;45.982;8.890;2023-02-12T06:39:11;11.70;;;6.47;;
49948;SDS011;35840;45.982;8.890;2023-02-12T06:41:40;10.73;;;7.15;;
49948;SDS011;35840;45.982;8.890;2023-02-12T06:44:08;10.32;;;5.97;;
49948;SDS011;35840;45.982;8.890;2023-02-12T06:46:36;9.45;;;5.53;;
49948;SDS011;35840;45.982;8.890;2023-02-12T06:49:03;8.43;;;4.97;;
49948;SDS011;35840;45.982;8.890;2023-02-12T06:51:30;8.30;;;5.28;;
49948;SDS011;35840;45.982;8.890;2023-02-12T06:53:57;12.00;;;6.10;;
49948;SDS011;35840;45.982;8.890;2023-02-12T06:56:24;10.35;;;5.63;;
49948;SDS011;35840;45.982;8.890;2023-02-12T06:58:53;9.18;;;6.25;;
49948;SDS011;35840;45.982;8.890;2023-02-12T07:01:23;10.23;;;5.90;;
49948;SDS011;35840;45.982;8.890;2023-02-12T07:03:55;9.35;;;5.72;;
49948;SDS011;35840;45.982;8.890;2023-02-12T07:06:28;9.82;;;5.70;;
49948;SDS011;35840;45.982;8.890;2023-02-12T07:08:56;11.65;;;5.47;;
49948;SDS011;35840;45.982;8.890;2023-02-12T07:11:27;9.80;;;6.60;;
49948;SDS011;35840;45.982;8.890;2023-02-12T07:13:56;9.80;;;6.35;;
49948;SDS011;35840;45.982;8.890;2023-02-12T07:16:23;11.75;;;6.32;;
49948;SDS011;35840;45.982;8.890;2023-02-12T07:18:50;11.00;;;6.45;;
49948;SDS011;35840;45.982;8.890;2023-02-12T07:21:17;10.00;;;5.80;;
49948;SDS011;35840;45.982;8.890;2023-02-12T07:23:45;10.50;;;5.95;;
49948;SDS011;35840;45.982;8.890;2023-02-12T07:26:17;9.02;;;6.10;;
49948;SDS011;35840;45.982;8.890;2023-02-12T07:28:45;9.30;;;5.97;;
49948;SDS011;35840;45.982;8.890;2023-02-12T07:31:13;12.02;;;6.10;;
49948;SDS011;35840;45.982;8.890;2023-02-12T07:33:45;9.88;;;6.00;;
49948;SDS011;35840;45.982;8.890;2023-02-12T07:36:13;11.73;;;5.78;;
49948;SDS011;35840;45.982;8.890;2023-02-12T07:38:42;8.38;;;4.90;;
49948;SDS011;35840;45.982;8.890;2023-02-12T07:41:13;8.05;;;5.05;;
49948;SDS011;35840;45.982;8.890;2023-02-12T07:43:42;9.10;;;5.65;;
49948;SDS011;35840;45.982;8.890;2023-02-12T07:46:14;10.95;;;6.50;;
49948;SDS011;35840;45.982;8.890;2023-02-12T07:48:49;11.45;;;6.32;;
49948;SDS011;35840;45.982;8.890;2023-02-12T07:51:17;8.52;;;5.38;;
49948;SDS011;35840;45.982;8.890;2023-02-12T07:53:44;13.68;;;6.60;;
49948;SDS011;35840;45.982;8.890;2023-02-12T07:56:13;12.48;;;6.95;;
49948;SDS011;35840;45.982;8.890;2023-02-12T07:58:42;13.82;;;6.90;;
49948;SDS011;35840;45.982;8.890;2023-02-12T08:01:11;10.10;;;7.35;;
49948;SDS011;35840;45.982;8.890;2023-02-12T08:03:45;12.10;;;7.67;;
49948;SDS011;35840;45.982;8.890;2023-02-12T08:06:14;11.98;;;7.97;;
49948;SDS011;35840;45.982;8.890;2023-02-12T08:08:43;13.07;;;7.28;;
49948;SDS011;35840;45.982;8.890;2023-02-12T08:11:11;16.30;;;7.80;;
49948;SDS011;35840;45.982;8.890;2023-02-12T08:13:39;12.02;;;7.22;;
49948;SDS011;35840;45.982;8.890;2023-02-12T08:16:10;13.93;;;7.68;;
49948;SDS011;35840;45.982;8.890;2023-02-12T08:18:39;15.57;;;7.90;;
49948;SDS011;35840;45.982;8.890;2023-02-12T08:21:16;12.20;;;7.60;;
49948;SDS011;35840;45.982;8.890;2023-02-12T08:23:46;13.18;;;7.15;;
49948;SDS011;35840;45.982;8.890;2023-02-12T08:28:48;12.43;;;7.65;;
49948;SDS011;35840;45.982;8.890;2023-02-12T08:31:24;15.60;;;8.07;;
49948;SDS011;35840;45.982;8.890;2023-02-12T08:33:53;11.65;;;7.13;;
49948;SDS011;35840;45.982;8.890;2023-02-12T08:36:30;12.40;;;7.75;;
49948;SDS011;35840;45.982;8.890;2023-02-12T08:39:05;14.43;;;8.45;;
49948;SDS011;35840;45.982;8.890;2023-02-12T08:41:33;14.50;;;8.40;;
49948;SDS011;35840;45.982;8.890;2023-02-12T08:44:01;15.88;;;9.82;;
49948;SDS011;35840;45.982;8.890;2023-02-12T08:46:33;15.43;;;8.20;;
49948;SDS011;35840;45.982;8.890;2023-02-12T08:49:03;17.67;;;8.63;;
49948;SDS011;35840;45.982;8.890;2023-02-12T08:51:45;17.48;;;9.38;;
49948;SDS011;35840;45.982;8.890;2023-02-12T08:54:21;14.02;;;7.70;;
49948;SDS011;35840;45.982;8.890;2023-02-12T08:59:16;15.25;;;9.00;;
49948;SDS011;35840;45.982;8.890;2023-02-12T09:01:43;17.52;;;9.57;;
49948;SDS011;35840;45.982;8.890;2023-02-12T09:04:14;18.55;;;9.75;;
49948;SDS011;35840;45.982;8.890;2023-02-12T09:06:43;14.90;;;9.00;;
49948;SDS011;35840;45.982;8.890;2023-02-12T09:09:11;13.75;;;8.07;;
49948;SDS011;35840;45.982;8.890;2023-02-12T09:11:39;19.38;;;10.27;;
49948;SDS011;35840;45.982;8.890;2023-02-12T09:14:09;14.30;;;8.73;;
49948;SDS011;35840;45.982;8.890;2023-02-12T09:16:39;17.00;;;9.43;;
49948;SDS011;35840;45.982;8.890;2023-02-12T09:19:06;15.30;;;9.18;;
49948;SDS011;35840;45.982;8.890;2023-02-12T09:21:34;16.63;;;10.23;;
49948;SDS011;35840;45.982;8.890;2023-02-12T09:24:01;15.73;;;9.27;;
49948;SDS011;35840;45.982;8.890;2023-02-12T09:26:29;15.40;;;9.95;;
49948;SDS011;35840;45.982;8.890;2023-02-12T09:28:56;18.42;;;9.52;;
49948;SDS011;35840;45.982;8.890;2023-02-12T09:31:26;15.93;;;9.13;;
49948;SDS011;35840;45.982;8.890;2023-02-12T09:33:57;14.68;;;8.20;;
49948;SDS011;35840;45.982;8.890;2023-02-12T09:36:25;17.50;;;10.40;;
49948;SDS011;35840;45.982;8.890;2023-02-12T09:38:52;12.98;;;9.13;;
49948;SDS011;35840;45.982;8.890;2023-02-12T09:41:27;19.10;;;9.55;;
49948;SDS011;35840;45.982;8.890;2023-02-12T09:46:30;16.98;;;8.52;;
49948;SDS011;35840;45.982;8.890;2023-02-12T09:51:26;17.25;;;9.65;;
49948;SDS011;35840;45.982;8.890;2023-02-12T09:54:00;17.83;;;9.63;;
49948;SDS011;35840;45.982;8.890;2023-02-12T09:56:31;13.40;;;8.18;;
49948;SDS011;35840;45.982;8.890;2023-02-12T09:59:01;14.15;;;8.57;;
49948;SDS011;35840;45.982;8.890;2023-02-12T10:01:31;16.38;;;9.23;;
49948;SDS011;35840;45.982;8.890;2023-02-12T10:03:59;15.18;;;9.38;;
49948;SDS011;35840;45.982;8.890;2023-02-12T10:06:28;14.43;;;8.48;;
49948;SDS011;35840;45.982;8.890;2023-02-12T10:22:56;13.45;;;7.57;;
49948;SDS011;35840;45.982;8.890;2023-02-12T10:25:48;14.55;;;7.97;;
49948;SDS011;35840;45.982;8.890;2023-02-12T10:31:07;12.00;;;6.88;;
49948;SDS011;35840;45.982;8.890;2023-02-12T10:33:46;11.10;;;7.90;;
49948;SDS011;35840;45.982;8.890;2023-02-12T10:39:20;12.50;;;7.80;;
49948;SDS011;35840;45.982;8.890;2023-02-12T10:41:54;11.57;;;7.85;;
49948;SDS011;35840;45.982;8.890;2023-02-12T10:44:26;14.05;;;8.27;;
49948;SDS011;35840;45.982;8.890;2023-02-12T10:46:54;12.15;;;7.25;;
49948;SDS011;35840;45.982;8.890;2023-02-12T10:49:21;9.25;;;6.97;;
49948;SDS011;35840;45.982;8.890;2023-02-12T10:54:42;11.25;;;6.28;;
49948;SDS011;35840;45.982;8.890;2023-02-12T10:57:17;11.18;;;6.93;;
49948;SDS011;35840;45.982;8.890;2023-02-12T10:59:48;10.05;;;6.47;;
49948;SDS011;35840;45.982;8.890;2023-02-12T11:02:23;10.55;;;6.20;;
49948;SDS011;35840;45.982;8.890;2023-02-12T11:04:58;10.35;;;6.15;;
49948;SDS011;35840;45.982;8.890;2023-02-12T11:07:45;12.15;;;6.28;;
49948;SDS011;35840;45.982;8.890;2023-02-12T11:10:20;10.75;;;7.07;;
49948;SDS011;35840;45.982;8.890;2023-02-12T11:12:58;10.18;;;5.63;;
49948;SDS011;35840;45.982;8.890;2023-02-12T11:15:26;9.63;;;5.60;;
49948;SDS011;35840;45.982;8.890;2023-02-12T11:18:01;10.85;;;5.88;;
49948;SDS011;35840;45.982;8.890;2023-02-12T11:20:41;10.40;;;5.45;;
49948;SDS011;35840;45.982;8.890;2023-02-12T11:23:32;8.93;;;4.80;;
49948;SDS011;35840;45.982;8.890;2023-02-12T11:31:31;7.57;;;5.22;;
49948;SDS011;35840;45.982;8.890;2023-02-12T11:36:45;9.93;;;6.82;;
49948;SDS011;35840;45.982;8.890;2023-02-12T11:39:48;10.52;;;6.90;;
49948;SDS011;35840;45.982;8.890;2023-02-12T11:44:47;8.13;;;5.75;;
49948;SDS011;35840;45.982;8.890;2023-02-12T11:47:22;7.15;;;4.70;;
49948;SDS011;35840;45.982;8.890;2023-02-12T11:49:55;8.23;;;4.37;;
49948;SDS011;35840;45.982;8.890;2023-02-12T11:52:24;8.52;;;4.45;;
49948;SDS011;35840;45.982;8.890;2023-02-12T11:54:56;6.22;;;4.38;;
49948;SDS011;35840;45.982;8.890;2023-02-12T12:00:16;6.60;;;3.78;;
49948;SDS011;35840;45.982;8.890;2023-02-12T12:02:52;6.43;;;4.07;;
49948;SDS011;35840;45.982;8.890;2023-02-12T12:05:35;6.60;;;4.20;;
49948;SDS011;35840;45.982;8.890;2023-02-12T12:08:12;6.07;;;4.20;;
49948;SDS011;35840;45.982;8.890;2023-02-12T12:10:48;4.53;;;3.22;;
49948;SDS011;35840;45.982;8.890;2023-02-12T12:13:21;6.50;;;3.40;;
49948;SDS011;35840;45.982;8.890;2023-02-12T12:15:57;5.38;;;3.50;;
49948;SDS011;35840;45.982;8.890;2023-02-12T12:18:55;5.63;;;3.70;;
49948;SDS011;35840;45.982;8.890;2023-02-12T12:22:15;6.95;;;4.00;;
49948;SDS011;35840;45.982;8.890;2023-02-12T12:27:22;7.93;;;4.13;;
49948;SDS011;35840;45.982;8.890;2023-02-12T12:30:24;7.07;;;4.68;;
49948;SDS011;35840;45.982;8.890;2023-02-12T12:33:18;8.32;;;4.07;;
49948;SDS011;35840;45.982;8.890;2023-02-12T12:41:38;6.38;;;4.80;;
49948;SDS011;35840;45.982;8.890;2023-02-12T13:08:58;7.28;;;4.75;;
49948;SDS011;35840;45.982;8.890;2023-02-12T13:24:59;12.30;;;5.43;;
49948;SDS011;35840;45.982;8.890;2023-02-12T13:27:29;8.07;;;5.32;;
49948;SDS011;35840;45.982;8.890;2023-02-12T13:30:05;6.82;;;5.35;;
49948;SDS011;35840;45.982;8.890;2023-02-12T13:32:43;9.88;;;5.68;;
49948;SDS011;35840;45.982;8.890;2023-02-12T13:35:15;7.72;;;5.50;;
49948;SDS011;35840;45.982;8.890;2023-02-12T13:37:47;8.23;;;5.35;;
49948;SDS011;35840;45.982;8.890;2023-02-12T13:40:17;8.23;;;5.50;;
49948;SDS011;35840;45.982;8.890;2023-02-12T13:48:54;10.55;;;6.57;;
49948;SDS011;35840;45.982;8.890;2023-02-12T13:51:45;10.40;;;6.82;;
49948;SDS011;35840;45.982;8.890;2023-02-12T13:57:13;7.00;;;5.20;;
49948;SDS011;35840;45.982;8.890;2023-02-12T13:59:45;8.32;;;5.72;;
49948;SDS011;35840;45.982;8.890;2023-02-12T14:07:51;7.88;;;5.70;;
49948;SDS011;35840;45.982;8.890;2023-02-12T14:13:21;10.15;;;6.60;;
49948;SDS011;35840;45.982;8.890;2023-02-12T14:15:50;11.32;;;7.25;;
49948;SDS011;35840;45.982;8.890;2023-02-12T14:18:26;9.40;;;6.45;;
49948;SDS011;35840;45.982;8.890;2023-02-12T14:23:41;9.63;;;6.57;;
49948;SDS011;35840;45.982;8.890;2023-02-12T14:26:12;9.90;;;6.85;;
49948;SDS011;35840;45.982;8.890;2023-02-12T14:33:44;13.93;;;7.18;;
49948;SDS011;35840;45.982;8.890;2023-02-12T14:41:23;12.10;;;7.80;;
49948;SDS011;35840;45.982;8.890;2023-02-12T14:46:55;9.80;;;6.50;;
49948;SDS011;35840;45.982;8.890;2023-02-12T14:52:19;10.80;;;6.50;;
49948;SDS011;35840;45.982;8.890;2023-02-12T14:54:53;8.43;;;6.90;;
49948;SDS011;35840;45.982;8.890;2023-02-12T14:57:32;9.85;;;5.70;;
49948;SDS011;35840;45.982;8.890;2023-02-12T15:00:24;8.60;;;5.35;;
49948;SDS011;35840;45.982;8.890;2023-02-12T15:03:00;8.23;;;5.78;;
49948;SDS011;35840;45.982;8.890;2023-02-12T15:05:41;13.88;;;7.75;;
49948;SDS011;35840;45.982;8.890;2023-02-12T15:11:11;12.98;;;7.38;;
49948;SDS011;35840;45.982;8.890;2023-02-12T15:13:47;11.05;;;6.97;;
49948;SDS011;35840;45.982;8.890;2023-02-12T15:16:21;9.77;;;7.45;;
49948;SDS011;35840;45.982;8.890;2023-02-12T15:18:57;9.40;;;7.22;;
49948;SDS011;35840;45.982;8.890;2023-02-12T15:21:30;12.95;;;7.43;;
49948;SDS011;35840;45.982;8.890;2023-02-12T15:24:05;9.38;;;6.88;;
49948;SDS011;35840;45.982;8.890;2023-02-12T15:29:13;12.25;;;6.90;;
49948;SDS011;35840;45.982;8.890;2023-02-12T15:31:50;10.05;;;6.15;;
49948;SDS011;35840;45.982;8.890;2023-02-12T15:34:20;10.10;;;6.57;;
49948;SDS011;35840;45.982;8.890;2023-02-12T15:36:49;11.20;;;6.82;;
49948;SDS011;35840;45.982;8.890;2023-02-12T15:39:17;12.10;;;7.50;;
49948;SDS011;35840;45.982;8.890;2023-02-12T15:41:47;11.40;;;7.22;;
49948;SDS011;35840;45.982;8.890;2023-02-12T15:49:34;10.55;;;7.43;;
49948;SDS011;35840;45.982;8.890;2023-02-12T15:52:07;13.35;;;8.90;;
49948;SDS011;35840;45.982;8.890;2023-02-12T15:54:59;12.73;;;9.15;;
49948;SDS011;35840;45.982;8.890;2023-02-12T15:57:27;17.95;;;11.40;;
49948;SDS011;35840;45.982;8.890;2023-02-12T15:59:55;19.23;;;12.55;;
49948;SDS011;35840;45.982;8.890;2023-02-12T16:02:38;17.08;;;10.35;;
49948;SDS011;35840;45.982;8.890;2023-02-12T16:05:04;16.17;;;9.38;;
49948;SDS011;35840;45.982;8.890;2023-02-12T16:07:33;14.25;;;10.55;;
49948;SDS011;35840;45.982;8.890;2023-02-12T16:10:02;19.05;;;12.15;;
49948;SDS011;35840;45.982;8.890;2023-02-12T16:12:31;20.17;;;14.30;;
49948;SDS011;35840;45.982;8.890;2023-02-12T16:15:00;15.65;;;9.23;;
49948;SDS011;35840;45.982;8.890;2023-02-12T16:17:28;10.07;;;7.10;;
49948;SDS011;35840;45.982;8.890;2023-02-12T16:19:59;14.30;;;8.20;;
49948;SDS011;35840;45.982;8.890;2023-02-12T16:22:27;11.82;;;7.70;;
49948;SDS011;35840;45.982;8.890;2023-02-12T16:25:00;14.88;;;10.45;;
49948;SDS011;35840;45.982;8.890;2023-02-12T16:27:28;22.75;;;11.38;;
49948;SDS011;35840;45.982;8.890;2023-02-12T16:30:01;20.23;;;11.65;;
49948;SDS011;35840;45.982;8.890;2023-02-12T16:32:38;17.70;;;10.10;;
49948;SDS011;35840;45.982;8.890;2023-02-12T16:35:28;17.17;;;8.98;;
49948;SDS011;35840;45.982;8.890;2023-02-12T16:37:56;15.43;;;7.80;;
49948;SDS011;35840;45.982;8.890;2023-02-12T16:40:28;12.57;;;8.32;;
49948;SDS011;35840;45.982;8.890;2023-02-12T16:50:25;26.42;;;14.82;;
49948;SDS011;35840;45.982;8.890;2023-02-12T16:52:59;19.73;;;13.27;;
49948;SDS011;35840;45.982;8.890;2023-02-12T16:55:26;20.05;;;13.48;;
49948;SDS011;35840;45.982;8.890;2023-02-12T16:57:54;20.60;;;14.55;;
49948;SDS011;35840;45.982;8.890;2023-02-12T17:00:21;22.55;;;14.40;;
49948;SDS011;35840;45.982;8.890;2023-02-12T17:02:49;23.33;;;15.18;;
49948;SDS011;35840;45.982;8.890;2023-02-12T17:05:16;27.38;;;16.83;;
49948;SDS011;35840;45.982;8.890;2023-02-12T17:07:43;27.08;;;17.70;;
49948;SDS011;35840;45.982;8.890;2023-02-12T17:10:11;26.73;;;15.60;;
49948;SDS011;35840;45.982;8.890;2023-02-12T17:12:43;28.15;;;16.17;;
49948;SDS011;35840;45.982;8.890;2023-02-12T17:16:00;24.75;;;15.20;;
49948;SDS011;35840;45.982;8.890;2023-02-12T17:18:08;23.52;;;14.77;;
49948;SDS011;35840;45.982;8.890;2023-02-12T17:20:37;25.17;;;15.65;;
49948;SDS011;35840;45.982;8.890;2023-02-12T17:23:04;28.88;;;17.70;;
49948;SDS011;35840;45.982;8.890;2023-02-12T17:25:31;29.17;;;17.90;;
49948;SDS011;35840;45.982;8.890;2023-02-12T17:27:59;33.60;;;16.15;;
49948;SDS011;35840;45.982;8.890;2023-02-12T17:30:26;31.50;;;15.82;;
49948;SDS011;35840;45.982;8.890;2023-02-12T17:32:54;25.33;;;15.05;;
49948;SDS011;35840;45.982;8.890;2023-02-12T17:35:20;24.88;;;16.33;;
49948;SDS011;35840;45.982;8.890;2023-02-12T17:37:50;28.38;;;18.27;;
49948;SDS011;35840;45.982;8.890;2023-02-12T17:40:18;29.48;;;16.92;;
49948;SDS011;35840;45.982;8.890;2023-02-12T17:42:45;24.40;;;16.05;;
49948;SDS011;35840;45.982;8.890;2023-02-12T17:45:12;26.73;;;15.88;;
49948;SDS011;35840;45.982;8.890;2023-02-12T17:47:38;25.50;;;14.95;;
49948;SDS011;35840;45.982;8.890;2023-02-12T17:50:06;26.02;;;15.52;;
49948;SDS011;35840;45.982;8.890;2023-02-12T17:52:38;25.40;;;15.18;;
49948;SDS011;35840;45.982;8.890;2023-02-12T17:55:05;22.75;;;14.40;;
49948;SDS011;35840;45.982;8.890;2023-02-12T17:57:33;26.27;;;16.58;;
49948;SDS011;35840;45.982;8.890;2023-02-12T18:00:00;27.05;;;15.55;;
49948;SDS011;35840;45.982;8.890;2023-02-12T18:02:35;24.45;;;15.38;;
49948;SDS011;35840;45.982;8.890;2023-02-12T18:05:03;24.35;;;15.77;;
49948;SDS011;35840;45.982;8.890;2023-02-12T18:07:33;24.65;;;15.88;;
49948;SDS011;35840;45.982;8.890;2023-02-12T18:10:03;25.23;;;16.30;;
49948;SDS011;35840;45.982;8.890;2023-02-12T18:12:31;27.08;;;16.67;;
49948;SDS011;35840;45.982;8.890;2023-02-12T18:14:59;26.08;;;16.33;;
49948;SDS011;35840;45.982;8.890;2023-02-12T18:17:27;24.80;;;14.43;;
49948;SDS011;35840;45.982;8.890;2023-02-12T18:19:54;21.02;;;12.90;;